Time;durP1;ratioP1;P1;durP2;ratioP2;P2;SDS_P1;SDS_P2;PMS_P1;PMS_P2;Temp;Humidity;BMP_temperature;BMP_pressure;BME280_temperature;BME280_humidity;BME280_pressure;Samples;Min_cycle;Max_cycle;Signal;HPM_P1;HPM_P2
2024/01/06 00:04:28;;;;;;;;;;;16.60;69.00;;;;;;10113965;28;93467;-43
2024/01/06 00:09:30;;;;;;;;;;;16.60;69.10;;;;;;10123243;28;93212;-45
2024/01/06 00:14:32;;;;;;;;;;;16.60;69.00;;;;;;10102160;28;93852;-43
2024/01/06 00:19:34;;;;;;;;;;;16.60;68.90;;;;;;10115969;28;93545;-43
2024/01/06 00:24:36;;;;;;;;;;;16.60;68.90;;;;;;10122912;28;93302;-48
2024/01/06 00:29:38;;;;;;;;;;;16.60;68.90;;;;;;10116263;28;93819;-45
2024/01/06 00:34:40;;;;;;;;;;;16.50;68.70;;;;;;10117323;28;96911;-47
2024/01/06 00:39:42;;;;;;;;;;;16.50;68.70;;;;;;10114913;28;93517;-47
2024/01/06 00:44:45;;;;;;;;;;;16.50;68.70;;;;;;10103638;28;94523;-44
2024/01/06 00:49:47;;;;;;;;;;;16.50;68.70;;;;;;10110642;28;93588;-45
2024/01/06 00:54:49;;;;;;;;;;;16.40;68.50;;;;;;10100845;28;94492;-47
2024/01/06 00:59:50;;;;;;;;;;;16.40;68.40;;;;;;10100941;28;94516;-44
2024/01/06 01:04:53;;;;;;;;;;;16.40;68.40;;;;;;10101182;28;94998;-47
2024/01/06 01:09:56;;;;;;;;;;;16.40;68.40;;;;;;10082802;28;92619;-46
2024/01/06 01:14:58;;;;;;;;;;;16.40;68.40;;;;;;10111316;28;93343;-46
2024/01/06 01:20:00;;;;;;;;;;;16.30;68.20;;;;;;10119497;28;94864;-43
2024/01/06 01:25:07;;;;;;;;;;;16.40;68.30;;;;;;10100152;28;97367;-43
2024/01/06 01:30:09;;;;;;;;;;;16.30;68.10;;;;;;10117039;28;93291;-48
2024/01/06 01:35:11;;;;;;;;;;;16.30;68.10;;;;;;10096656;28;93449;-46
2024/01/06 01:40:13;;;;;;;;;;;16.30;68.10;;;;;;10115682;28;93527;-44
2024/01/06 01:45:14;;;;;;;;;;;16.30;68.10;;;;;;10114064;28;94795;-44
2024/01/06 01:50:16;;;;;;;;;;;16.30;68.00;;;;;;10117127;28;92955;-47
2024/01/06 01:55:18;;;;;;;;;;;16.30;68.00;;;;;;10125614;28;94102;-44
2024/01/06 02:05:40;;;;;;;;;;;16.30;67.90;;;;;;10509688;23;94178;-55
2024/01/06 02:10:42;;;;;;;;;;;16.30;67.90;;;;;;10136510;28;93842;-55
2024/01/06 02:15:44;;;;;;;;;;;16.30;67.80;;;;;;10148382;28;96048;-58
2024/01/06 02:20:48;;;;;;;;;;;16.20;67.80;;;;;;10163763;28;93667;-56
2024/01/06 02:25:49;;;;;;;;;;;16.20;67.60;;;;;;10144143;28;93551;-55
2024/01/06 02:30:51;;;;;;;;;;;16.20;67.60;;;;;;10145168;28;93564;-55
2024/01/06 02:35:53;;;;;;;;;;;16.20;67.60;;;;;;10165252;28;94304;-55
2024/01/06 02:40:55;;;;;;;;;;;16.20;67.50;;;;;;10153893;28;93853;-55
2024/01/06 02:45:57;;;;;;;;;;;16.20;67.50;;;;;;10148394;28;92645;-56
2024/01/06 02:50:58;;;;;;;;;;;16.20;67.40;;;;;;10160946;28;92544;-54
2024/01/06 02:56:00;;;;;;;;;;;16.20;67.40;;;;;;10156382;28;94429;-57
2024/01/06 03:01:02;;;;;;;;;;;16.20;67.20;;;;;;10151124;28;93369;-56
2024/01/06 03:06:05;;;;;;;;;;;16.10;67.30;;;;;;10156925;28;95835;-55
2024/01/06 03:11:07;;;;;;;;;;;16.10;67.20;;;;;;10141668;28;93451;-56
2024/01/06 03:16:11;;;;;;;;;;;16.10;67.10;;;;;;10157892;28;94314;-55
2024/01/06 03:21:19;;;;;;;;;;;16.10;67.00;;;;;;10136572;28;93838;-55
2024/01/06 03:26:21;;;;;;;;;;;16.10;67.00;;;;;;10152525;28;97652;-57
2024/01/06 03:31:23;;;;;;;;;;;16.10;67.00;;;;;;10135783;28;93481;-56
2024/01/06 03:36:25;;;;;;;;;;;16.10;67.00;;;;;;10150021;28;94474;-55
2024/01/06 03:41:27;;;;;;;;;;;16.10;67.00;;;;;;10144156;28;92581;-55
2024/01/06 03:46:29;;;;;;;;;;;16.10;67.00;;;;;;10139405;28;93567;-56
2024/01/06 03:51:31;;;;;;;;;;;16.10;67.00;;;;;;10151431;28;93427;-57
2024/01/06 03:56:33;;;;;;;;;;;16.00;66.90;;;;;;10153498;28;95902;-56
2024/01/06 04:01:35;;;;;;;;;;;16.10;66.80;;;;;;10144270;28;93421;-56
2024/01/06 04:06:37;;;;;;;;;;;16.10;66.60;;;;;;10159759;28;93356;-57
2024/01/06 04:11:39;;;;;;;;;;;16.00;66.60;;;;;;10147492;28;94492;-57
2024/01/06 04:16:41;;;;;;;;;;;16.00;66.60;;;;;;10144182;28;93753;-57
2024/01/06 04:21:43;;;;;;;;;;;16.00;66.70;;;;;;10160761;28;93929;-58
2024/01/06 04:26:45;;;;;;;;;;;16.00;66.60;;;;;;10163301;28;95115;-57
2024/01/06 04:31:47;;;;;;;;;;;16.00;66.60;;;;;;10152649;28;94381;-56
2024/01/06 04:36:50;;;;;;;;;;;16.00;66.50;;;;;;10152543;28;93617;-57
2024/01/06 04:41:51;;;;;;;;;;;15.90;66.40;;;;;;10147999;28;94144;-56
2024/01/06 04:46:53;;;;;;;;;;;15.90;66.30;;;;;;10165989;28;95829;-55
2024/01/06 04:51:56;;;;;;;;;;;16.00;66.40;;;;;;10162645;28;94214;-56
2024/01/06 04:56:58;;;;;;;;;;;15.90;66.10;;;;;;10152576;28;93989;-56
2024/01/06 05:02:00;;;;;;;;;;;16.00;66.20;;;;;;10165963;28;93398;-56
2024/01/06 05:07:02;;;;;;;;;;;15.90;66.10;;;;;;10158855;28;93255;-55
2024/01/06 05:12:04;;;;;;;;;;;15.90;66.20;;;;;;10160682;28;93339;-56
2024/01/06 05:17:06;;;;;;;;;;;15.90;66.20;;;;;;10156305;28;93900;-56
2024/01/06 05:22:08;;;;;;;;;;;15.80;66.10;;;;;;10162657;28;91942;-55
2024/01/06 05:27:10;;;;;;;;;;;15.90;66.20;;;;;;10153060;28;94854;-55
2024/01/06 05:32:15;;;;;;;;;;;15.90;66.20;;;;;;10167336;28;94663;-56
2024/01/06 05:37:17;;;;;;;;;;;15.90;66.10;;;;;;10152905;28;96971;-59
2024/01/06 05:42:19;;;;;;;;;;;15.90;66.10;;;;;;10162147;28;94434;-57
2024/01/06 05:47:21;;;;;;;;;;;15.90;66.10;;;;;;10156668;28;94229;-56
2024/01/06 05:52:23;;;;;;;;;;;16.00;66.10;;;;;;10167020;28;93900;-56
2024/01/06 05:57:25;;;;;;;;;;;16.20;66.00;;;;;;10153954;28;94549;-56
2024/01/06 06:02:27;;;;;;;;;;;16.30;65.60;;;;;;10162621;28;94625;-55
2024/01/06 06:07:28;;;;;;;;;;;16.40;65.10;;;;;;10140729;28;94336;-55
2024/01/06 06:12:30;;;;;;;;;;;16.50;64.90;;;;;;10153040;28;93250;-55
2024/01/06 06:17:32;;;;;;;;;;;16.50;64.70;;;;;;10152389;28;94010;-56
2024/01/06 06:22:34;;;;;;;;;;;16.50;64.60;;;;;;10145790;28;93573;-57
2024/01/06 06:27:36;;;;;;;;;;;16.50;64.60;;;;;;10148733;28;97936;-55
2024/01/06 06:32:38;;;;;;;;;;;16.40;64.60;;;;;;10163415;28;93682;-55
2024/01/06 06:37:40;;;;;;;;;;;16.40;64.60;;;;;;10158963;28;93543;-55
2024/01/06 06:42:42;;;;;;;;;;;16.40;64.70;;;;;;10158790;28;93465;-54
2024/01/06 06:47:44;;;;;;;;;;;16.30;64.80;;;;;;10160223;28;93503;-55
2024/01/06 06:52:46;;;;;;;;;;;16.30;64.90;;;;;;10143913;28;93723;-56
2024/01/06 06:57:48;;;;;;;;;;;16.30;64.90;;;;;;10153867;28;94287;-56
2024/01/06 07:02:50;;;;;;;;;;;16.30;64.90;;;;;;10160253;28;93089;-54
2024/01/06 07:07:52;;;;;;;;;;;16.30;65.00;;;;;;10143634;28;93670;-70
2024/01/06 07:12:54;;;;;;;;;;;16.30;65.00;;;;;;10153725;28;94626;-56
2024/01/06 07:17:56;;;;;;;;;;;16.30;65.20;;;;;;10141745;28;96054;-56
2024/01/06 07:22:57;;;;;;;;;;;16.40;65.20;;;;;;10167688;28;93053;-43
2024/01/06 07:27:59;;;;;;;;;;;16.50;65.10;;;;;;10142270;28;93845;-44
2024/01/06 07:33:02;;;;;;;;;;;16.50;64.90;;;;;;10147049;28;93645;-44
2024/01/06 07:38:04;;;;;;;;;;;16.50;64.80;;;;;;10149467;28;94988;-46
2024/01/06 07:43:06;;;;;;;;;;;16.50;65.00;;;;;;10159689;28;95960;-42
2024/01/06 07:48:07;;;;;;;;;;;16.60;65.10;;;;;;10160667;28;93397;-44
2024/01/06 07:53:10;;;;;;;;;;;16.70;65.10;;;;;;10157972;28;94468;-42
2024/01/06 07:58:12;;;;;;;;;;;16.90;64.90;;;;;;10141207;28;94440;-43
2024/01/06 08:03:14;;;;;;;;;;;17.10;64.60;;;;;;10151745;28;93728;-46
2024/01/06 08:08:16;;;;;;;;;;;17.30;64.20;;;;;;10156955;28;96417;-41
2024/01/06 08:13:20;;;;;;;;;;;17.50;63.80;;;;;;10154090;28;114098;-42
2024/01/06 08:18:22;;;;;;;;;;;17.60;63.50;;;;;;10157108;28;93388;-42
2024/01/06 08:23:24;;;;;;;;;;;17.70;63.20;;;;;;10150817;28;93564;-46
2024/01/06 08:28:26;;;;;;;;;;;17.80;63.00;;;;;;10153623;28;96037;-44
2024/01/06 08:33:28;;;;;;;;;;;17.80;63.00;;;;;;10155336;28;94130;-44
2024/01/06 08:38:30;;;;;;;;;;;17.80;63.10;;;;;;10159506;28;93076;-46
2024/01/06 08:43:31;;;;;;;;;;;17.70;63.10;;;;;;10164673;28;92849;-48
2024/01/06 08:48:33;;;;;;;;;;;17.70;63.10;;;;;;10161790;28;93582;-44
2024/01/06 08:53:36;;;;;;;;;;;17.70;63.10;;;;;;10150627;28;93502;-47
2024/01/06 08:58:38;;;;;;;;;;;17.50;63.90;;;;;;10150201;28;97246;-46
2024/01/06 09:03:40;;;;;;;;;;;17.50;64.10;;;;;;10143273;28;94006;-43
2024/01/06 09:08:42;;;;;;;;;;;17.60;64.30;;;;;;10158661;28;94061;-44
2024/01/06 09:13:44;;;;;;;;;;;17.70;65.10;;;;;;10156691;28;94153;-44
2024/01/06 09:18:46;;;;;;;;;;;17.80;64.40;;;;;;10150604;28;93978;-46
2024/01/06 09:23:48;;;;;;;;;;;17.80;64.10;;;;;;10151802;28;93815;-44
2024/01/06 09:28:50;;;;;;;;;;;17.80;64.00;;;;;;10157274;28;94638;-44
2024/01/06 09:33:52;;;;;;;;;;;17.70;64.40;;;;;;10158526;28;93114;-47
2024/01/06 09:38:53;;;;;;;;;;;17.80;64.70;;;;;;10145957;28;93536;-44
2024/01/06 09:43:56;;;;;;;;;;;17.80;64.80;;;;;;10162735;28;93472;-44
2024/01/06 09:48:58;;;;;;;;;;;17.80;64.70;;;;;;10150691;28;96262;-46
2024/01/06 09:54:01;;;;;;;;;;;17.90;65.00;;;;;;10156727;28;94490;-44
2024/01/06 09:59:03;;;;;;;;;;;17.80;64.80;;;;;;10154843;28;94613;-42
2024/01/06 10:04:06;;;;;;;;;;;17.80;64.80;;;;;;10149997;28;93647;-44
2024/01/06 10:09:07;;;;;;;;;;;17.80;64.70;;;;;;10147146;28;93665;-41
2024/01/06 10:14:09;;;;;;;;;;;17.70;64.70;;;;;;10163340;28;94059;-46
2024/01/06 10:19:11;;;;;;;;;;;17.70;64.80;;;;;;10156601;28;93464;-43
2024/01/06 10:24:13;;;;;;;;;;;17.60;65.00;;;;;;10157087;28;92934;-42
2024/01/06 10:29:15;;;;;;;;;;;17.70;65.20;;;;;;10142617;28;94890;-43
2024/01/06 10:34:17;;;;;;;;;;;17.70;65.00;;;;;;10140827;28;94440;-44
2024/01/06 10:39:20;;;;;;;;;;;17.70;64.90;;;;;;10155203;28;95929;-44
2024/01/06 10:44:24;;;;;;;;;;;17.70;65.00;;;;;;10164853;28;94297;-46
2024/01/06 10:49:26;;;;;;;;;;;17.60;65.10;;;;;;10167923;28;93729;-45
2024/01/06 10:54:29;;;;;;;;;;;17.70;65.30;;;;;;10169924;28;93398;-46
2024/01/06 10:59:32;;;;;;;;;;;17.70;65.20;;;;;;10149954;28;93178;-47
2024/01/06 11:04:34;;;;;;;;;;;17.70;65.50;;;;;;10148690;28;93403;-43
2024/01/06 11:09:39;;;;;;;;;;;17.70;66.20;;;;;;10115370;28;94757;-45
2024/01/06 11:14:41;;;;;;;;;;;17.70;66.10;;;;;;10152987;28;92682;-43
2024/01/06 11:19:43;;;;;;;;;;;17.70;65.60;;;;;;10173088;28;93439;-44
2024/01/06 11:24:49;;;;;;;;;;;17.80;65.50;;;;;;10154677;28;94643;-44
2024/01/06 11:29:52;;;;;;;;;;;17.70;65.50;;;;;;10139471;28;96398;-43
2024/01/06 11:34:56;;;;;;;;;;;17.70;65.50;;;;;;10138988;28;93815;-42
2024/01/06 11:39:58;;;;;;;;;;;17.70;65.80;;;;;;10161606;28;93627;-44
2024/01/06 11:45:03;;;;;;;;;;;17.70;65.80;;;;;;10148379;28;94094;-42
2024/01/06 11:50:05;;;;;;;;;;;17.70;66.00;;;;;;10115990;28;94449;-43
2024/01/06 11:55:09;;;;;;;;;;;17.70;65.70;;;;;;10139130;28;93953;-43
2024/01/06 12:00:14;;;;;;;;;;;17.60;65.50;;;;;;10144993;28;94009;-46
2024/01/06 12:05:17;;;;;;;;;;;17.60;65.50;;;;;;10161879;28;93112;-41
2024/01/06 12:10:20;;;;;;;;;;;17.60;65.40;;;;;;10132846;28;93442;-42
2024/01/06 12:15:23;;;;;;;;;;;17.60;65.20;;;;;;10133061;28;95942;-42
2024/01/06 12:20:25;;;;;;;;;;;17.60;65.00;;;;;;10142431;28;95957;-42
2024/01/06 12:25:29;;;;;;;;;;;17.50;65.00;;;;;;10154873;28;93763;-44
2024/01/06 12:30:31;;;;;;;;;;;17.50;65.00;;;;;;10149268;28;93423;-48
2024/01/06 12:35:34;;;;;;;;;;;17.60;64.90;;;;;;10154199;28;93392;-47
2024/01/06 12:40:39;;;;;;;;;;;17.50;64.60;;;;;;10151187;28;94758;-44
2024/01/06 12:45:42;;;;;;;;;;;17.50;64.50;;;;;;10167330;28;94769;-45
2024/01/06 12:50:43;;;;;;;;;;;17.50;64.50;;;;;;10134255;28;93803;-46
2024/01/06 12:55:45;;;;;;;;;;;17.50;64.50;;;;;;10154098;28;92974;-47
2024/01/06 13:00:47;;;;;;;;;;;17.50;64.40;;;;;;10144551;28;93605;-46
2024/01/06 13:05:49;;;;;;;;;;;17.50;64.20;;;;;;10135123;28;94197;-46
2024/01/06 13:10:51;;;;;;;;;;;17.50;64.10;;;;;;10161082;28;96454;-49
2024/01/06 13:15:53;;;;;;;;;;;17.50;64.20;;;;;;10157884;28;93435;-43
2024/01/06 13:20:55;;;;;;;;;;;17.50;65.60;;;;;;10148843;28;94323;-46
2024/01/06 13:25:57;;;;;;;;;;;17.60;67.90;;;;;;10173384;28;94294;-43
2024/01/06 13:30:59;;;;;;;;;;;17.70;66.20;;;;;;10172850;28;93878;-42
2024/01/06 13:36:01;;;;;;;;;;;17.70;65.90;;;;;;10165848;28;93705;-43
2024/01/06 13:41:03;;;;;;;;;;;17.70;66.00;;;;;;10171311;28;93508;-41
2024/01/06 13:46:05;;;;;;;;;;;17.70;65.80;;;;;;10164094;28;93688;-41
2024/01/06 13:51:07;;;;;;;;;;;17.70;64.70;;;;;;10165321;28;93673;-47
2024/01/06 13:56:09;;;;;;;;;;;17.60;64.80;;;;;;10137030;28;94196;-45
2024/01/06 14:01:10;;;;;;;;;;;17.60;64.80;;;;;;10138682;28;95979;-44
2024/01/06 14:06:13;;;;;;;;;;;17.60;64.60;;;;;;10143880;28;93472;-46
2024/01/06 14:11:16;;;;;;;;;;;17.70;64.40;;;;;;10149140;28;93442;-42
2024/01/06 14:16:18;;;;;;;;;;;17.70;64.40;;;;;;10152595;28;94766;-42
2024/01/06 14:21:20;;;;;;;;;;;17.70;64.40;;;;;;10149623;28;94408;-43
2024/01/06 14:26:23;;;;;;;;;;;17.70;64.10;;;;;;10169159;28;94211;-43
2024/01/06 14:31:26;;;;;;;;;;;17.90;63.80;;;;;;10148073;28;93202;-43
2024/01/06 14:36:29;;;;;;;;;;;18.10;63.40;;;;;;10148857;28;93930;-43
2024/01/06 14:41:31;;;;;;;;;;;18.20;63.10;;;;;;10131811;28;93606;-62
2024/01/06 14:46:34;;;;;;;;;;;18.10;62.70;;;;;;10156300;28;93517;-44
2024/01/06 14:51:35;;;;;;;;;;;18.10;62.80;;;;;;10163101;28;96164;-42
2024/01/06 14:56:38;;;;;;;;;;;18.20;63.70;;;;;;10155198;28;93437;-42
2024/01/06 15:01:44;;;;;;;;;;;18.20;62.40;;;;;;10131826;28;93572;-43
2024/01/06 15:06:47;;;;;;;;;;;18.10;62.30;;;;;;10139634;28;94061;-43
2024/01/06 15:11:48;;;;;;;;;;;18.00;62.40;;;;;;10138794;28;94379;-46
2024/01/06 15:16:50;;;;;;;;;;;18.10;62.50;;;;;;10155691;28;94484;-45
2024/01/06 15:21:52;;;;;;;;;;;18.10;62.30;;;;;;10141576;28;94085;-44
2024/01/06 15:26:54;;;;;;;;;;;18.20;62.20;;;;;;10154981;28;92760;-41
2024/01/06 15:31:59;;;;;;;;;;;18.10;62.00;;;;;;10147053;28;93488;-44
2024/01/06 15:37:01;;;;;;;;;;;18.10;62.10;;;;;;10147594;28;93506;-46
2024/01/06 15:42:03;;;;;;;;;;;18.20;62.20;;;;;;10137670;28;96683;-48
2024/01/06 15:47:05;;;;;;;;;;;18.30;61.90;;;;;;10134423;28;93443;-44
2024/01/06 15:52:08;;;;;;;;;;;18.50;61.50;;;;;;10160828;28;93472;-45
2024/01/06 15:57:10;;;;;;;;;;;18.70;61.10;;;;;;10137128;28;92772;-42
2024/01/06 16:02:12;;;;;;;;;;;18.90;60.60;;;;;;10141796;28;93473;-42
2024/01/06 16:07:14;;;;;;;;;;;18.90;60.40;;;;;;10155960;28;93393;-43
2024/01/06 16:12:17;;;;;;;;;;;18.90;60.50;;;;;;10172204;28;94088;-42
2024/01/06 16:17:19;;;;;;;;;;;18.90;60.30;;;;;;10152612;28;93328;-42
2024/01/06 16:22:21;;;;;;;;;;;19.00;60.30;;;;;;10100310;28;93686;-42
2024/01/06 16:27:23;;;;;;;;;;;19.10;59.90;;;;;;10169406;28;92702;-43
2024/01/06 16:32:25;;;;;;;;;;;19.10;59.70;;;;;;10142504;28;97929;-54
2024/01/06 16:37:26;;;;;;;;;;;19.10;59.70;;;;;;10160988;28;93383;-43
2024/01/06 16:42:28;;;;;;;;;;;18.90;59.00;;;;;;10151127;28;94705;-45
2024/01/06 16:47:30;;;;;;;;;;;18.80;59.70;;;;;;10167244;28;93812;-47
2024/01/06 16:52:32;;;;;;;;;;;18.70;61.20;;;;;;10151032;28;93561;-43
2024/01/06 16:57:34;;;;;;;;;;;18.70;63.20;;;;;;10161106;28;94440;-45
2024/01/06 17:02:36;;;;;;;;;;;18.70;64.50;;;;;;10153333;28;94007;-44
2024/01/06 17:07:44;;;;;;;;;;;18.70;66.90;;;;;;10152956;28;92873;-44
2024/01/06 17:12:46;;;;;;;;;;;18.70;66.40;;;;;;10156247;28;93005;-43
2024/01/06 17:17:49;;;;;;;;;;;18.70;66.70;;;;;;10153461;28;94262;-45
2024/01/06 17:22:51;;;;;;;;;;;18.60;65.80;;;;;;10137800;28;95952;-44
2024/01/06 17:27:53;;;;;;;;;;;18.60;65.60;;;;;;10172474;28;94047;-47
2024/01/06 17:32:55;;;;;;;;;;;18.60;65.40;;;;;;10156833;28;93463;-43
2024/01/06 17:37:57;;;;;;;;;;;18.50;65.20;;;;;;10154655;28;93943;-44
2024/01/06 17:42:59;;;;;;;;;;;18.50;65.10;;;;;;10153230;28;93320;-43
2024/01/06 17:48:01;;;;;;;;;;;18.50;65.00;;;;;;10159245;28;94386;-46
2024/01/06 17:53:04;;;;;;;;;;;18.50;64.90;;;;;;10147914;28;94206;-44
2024/01/06 17:58:06;;;;;;;;;;;18.40;64.80;;;;;;10170117;28;93314;-43
2024/01/06 18:03:08;;;;;;;;;;;18.40;66.40;;;;;;10163883;28;94657;-54
2024/01/06 18:08:09;;;;;;;;;;;18.40;66.10;;;;;;10160060;28;93791;-43
2024/01/06 18:13:11;;;;;;;;;;;18.40;66.50;;;;;;10156098;28;96345;-43
2024/01/06 18:18:13;;;;;;;;;;;18.30;66.20;;;;;;10153649;28;93460;-45
2024/01/06 18:23:15;;;;;;;;;;;18.30;65.90;;;;;;10158900;28;93029;-46
2024/01/06 18:28:23;;;;;;;;;;;18.30;65.90;;;;;;10146686;28;93506;-48
2024/01/06 18:33:26;;;;;;;;;;;18.30;66.60;;;;;;10143879;28;93595;-48
2024/01/06 18:38:28;;;;;;;;;;;18.30;65.40;;;;;;10139889;28;93493;-42
2024/01/06 18:43:29;;;;;;;;;;;18.30;65.40;;;;;;10143124;28;93857;-45
2024/01/06 18:48:31;;;;;;;;;;;18.20;65.30;;;;;;10142233;28;93757;-41
2024/01/06 18:53:33;;;;;;;;;;;18.20;65.40;;;;;;10149264;28;93520;-46
2024/01/06 18:58:38;;;;;;;;;;;18.20;65.50;;;;;;10153546;28;94905;-41
2024/01/06 19:03:43;;;;;;;;;;;18.20;65.50;;;;;;10135630;28;96464;-43
2024/01/06 19:08:44;;;;;;;;;;;18.20;65.40;;;;;;10162128;28;93467;-42
2024/01/06 19:13:47;;;;;;;;;;;18.20;65.40;;;;;;10149425;28;93475;-44
2024/01/06 19:18:48;;;;;;;;;;;18.10;65.70;;;;;;10142033;28;94133;-56
2024/01/06 19:23:50;;;;;;;;;;;18.10;65.60;;;;;;10143586;28;95195;-42
2024/01/06 19:28:52;;;;;;;;;;;18.10;65.70;;;;;;10144090;28;93534;-42
2024/01/06 19:33:55;;;;;;;;;;;18.10;65.70;;;;;;10142138;28;93574;-42
2024/01/06 19:38:57;;;;;;;;;;;18.10;65.70;;;;;;10160053;28;92652;-44
2024/01/06 19:44:01;;;;;;;;;;;18.10;65.90;;;;;;10143975;28;94497;-42
2024/01/06 19:49:03;;;;;;;;;;;18.00;65.70;;;;;;10153639;28;93501;-42
2024/01/06 19:54:05;;;;;;;;;;;18.00;65.50;;;;;;10141374;28;96549;-47
2024/01/06 19:59:12;;;;;;;;;;;18.00;65.40;;;;;;10141646;28;93633;-43
2024/01/06 20:04:14;;;;;;;;;;;18.00;65.20;;;;;;10157475;28;94370;-44
2024/01/06 20:09:15;;;;;;;;;;;18.00;65.20;;;;;;10155204;28;94249;-45
2024/01/06 20:14:18;;;;;;;;;;;18.00;65.30;;;;;;10153641;28;93267;-42
2024/01/06 20:19:20;;;;;;;;;;;18.00;65.20;;;;;;10160991;28;93807;-41
2024/01/06 20:24:22;;;;;;;;;;;18.00;65.10;;;;;;10137924;28;93633;-44
2024/01/06 20:29:24;;;;;;;;;;;18.00;64.90;;;;;;10144649;28;93532;-45
2024/01/06 20:34:26;;;;;;;;;;;18.00;65.20;;;;;;10172235;28;93429;-43
2024/01/06 20:39:28;;;;;;;;;;;18.00;65.60;;;;;;10160884;28;93362;-43
2024/01/06 20:44:30;;;;;;;;;;;17.90;65.40;;;;;;10132844;28;95279;-43
2024/01/06 20:49:32;;;;;;;;;;;17.90;65.80;;;;;;10133144;28;94138;-45
2024/01/06 20:54:36;;;;;;;;;;;17.80;66.00;;;;;;10148809;28;95556;-45
2024/01/06 20:59:39;;;;;;;;;;;17.90;66.00;;;;;;10168521;28;94094;-45
2024/01/06 21:04:41;;;;;;;;;;;17.80;66.10;;;;;;10143374;28;94565;-44
2024/01/06 21:09:43;;;;;;;;;;;17.80;66.10;;;;;;10151535;28;93795;-45
2024/01/06 21:14:46;;;;;;;;;;;17.70;66.20;;;;;;10164633;28;93530;-43
2024/01/06 21:19:48;;;;;;;;;;;17.70;66.20;;;;;;10150777;28;92651;-41
2024/01/06 21:24:51;;;;;;;;;;;17.70;66.20;;;;;;10151523;28;93545;-41
2024/01/06 21:29:53;;;;;;;;;;;17.70;66.20;;;;;;10149983;28;93486;-46
2024/01/06 21:34:55;;;;;;;;;;;17.70;66.20;;;;;;10160818;28;96592;-42
2024/01/06 21:39:58;;;;;;;;;;;17.70;66.30;;;;;;10144684;28;93279;-42
2024/01/06 21:45:00;;;;;;;;;;;17.70;66.20;;;;;;10155332;28;93486;-45
2024/01/06 21:50:02;;;;;;;;;;;17.60;66.30;;;;;;10149511;28;93927;-44
2024/01/06 21:55:06;;;;;;;;;;;17.60;65.70;;;;;;10150276;28;93188;-44
2024/01/06 22:00:13;;;;;;;;;;;17.50;65.20;;;;;;10134309;28;94028;-42
2024/01/06 22:05:15;;;;;;;;;;;17.50;65.40;;;;;;10152269;28;93625;-45
2024/01/06 22:10:17;;;;;;;;;;;17.30;65.30;;;;;;10136469;28;94076;-45
2024/01/06 22:15:19;;;;;;;;;;;17.20;65.20;;;;;;10161058;28;93994;-44
2024/01/06 22:20:21;;;;;;;;;;;17.20;65.30;;;;;;10140550;28;93623;-41
2024/01/06 22:25:23;;;;;;;;;;;17.10;65.30;;;;;;10158992;28;96015;-40
2024/01/06 22:30:25;;;;;;;;;;;17.10;65.40;;;;;;10148309;28;93498;-42
2024/01/06 22:35:27;;;;;;;;;;;17.00;65.40;;;;;;10139824;28;93465;-42
2024/01/06 22:40:29;;;;;;;;;;;16.90;65.30;;;;;;10157373;28;94419;-43
2024/01/06 22:45:31;;;;;;;;;;;16.90;65.30;;;;;;10140836;28;94435;-46
2024/01/06 22:50:34;;;;;;;;;;;16.90;65.30;;;;;;10160941;28;93440;-45
2024/01/06 22:55:36;;;;;;;;;;;16.90;65.30;;;;;;10153761;28;95419;-43
2024/01/06 23:00:38;;;;;;;;;;;16.80;65.20;;;;;;10150480;28;92887;-42
2024/01/06 23:05:40;;;;;;;;;;;16.80;65.20;;;;;;10148983;28;93191;-45
2024/01/06 23:10:42;;;;;;;;;;;16.70;64.50;;;;;;10149203;28;93494;-44
2024/01/06 23:15:44;;;;;;;;;;;16.70;64.00;;;;;;10148619;28;96476;-42
2024/01/06 23:20:46;;;;;;;;;;;16.70;63.60;;;;;;10135886;28;94078;-45
2024/01/06 23:25:48;;;;;;;;;;;16.70;63.20;;;;;;10147799;28;94249;-46
2024/01/06 23:30:49;;;;;;;;;;;16.70;62.70;;;;;;10157395;28;93461;-46
2024/01/06 23:35:51;;;;;;;;;;;16.60;62.30;;;;;;10151520;28;93501;-41
2024/01/06 23:40:53;;;;;;;;;;;16.70;61.90;;;;;;10156495;28;95331;-43
2024/01/06 23:45:55;;;;;;;;;;;16.70;61.80;;;;;;10158378;28;93453;-42
2024/01/06 23:50:57;;;;;;;;;;;16.60;61.50;;;;;;10152200;28;92679;-43
2024/01/06 23:55:59;;;;;;;;;;;16.60;61.90;;;;;;10124028;28;94110;-45
